Buckhorn, New Mexico
Current Conditions -  °F | °C
As of 2:35 PM on Friday 19 Dec 2014 (Local Time) from KSVC Reporting Station
Clear Clear  
Wind Chill: 44°   Ceiling: Unl
Heat Index: 46°   Visibility: 10mi
Dew Point: 28°   Wind: 6mph
Humidity: 50%   Direction: 190°S
Pressure: 30.17"   Gusts: NA
Location:  33.03°N, 108.71°W
Report Text: KSVC 192135Z AUTO 19005KT 10SM CLR 08/M02 A3017 RMK AO2
Loading
Personal Weather Stations






























Interactive Weather Map New forecast layout! Learn more

10-Day Weather Forecast

Advertisements
Track Severe Weather on mobile